aviador You're here:

KMBL Decoded Metar

MANISTEE in MI, USA
Report Time2018-01-23 03:56:00
UTC Time2018-01-23 04:04:38
Flight Rules lifr LIFR
WindVRB at 04 kt
Visibility402 m
Phenomena:Fog
Clouds:Overcast 003 Hf
Ceiling300 ft
Temp03°C (ISA -11)
Dew Point03°C (100% RH)
AAT0.1°C
QNH997 hPa
Density Alt-30 ft
Elevation620 ft
Report Wrong Elevation
Raw Report
KMBL 230356Z AUTO VRB04KT 1/4SM FG OVC003 03/03 A2945 RMK AO2
SLP997 T00330033 PNO $=

Extra information for KMBL:More info

Metar Taf Metar & Taf Last 4 Metars F.Rules Stats Wind Profile Meteogram Temp Stats Airport Information Weather charts Add Link Nearby VenuesMetar ALERT Operation Metar Decoded Social comments

AIRNAV info for KMBL